Connexion S'enregistrer

Connexion à votre compte

Identifiant
Mot de passe
Maintenir la connexion active sur ce site

Créer un compte

Pour valider ce formulaire, vous devez remplir tous les champs.
Nom
Identifiant
Mot de passe
Répétez le mot de passe
Adresse e-mail
Répétez l'adresse e-mail

METAR/TAF de Chambéry

[source: ADDS]
METAR
LFLB 272230Z AUTO 03008KT 350V090 9999 FEW056/// BKN120/// BKN150/// ///CB 22/18 Q1015 =
TAF LFLB 271400Z 2715/2815 36004KT CAVOK BECMG 2718/2720 18005KT PROB40 TEMPO 2715/2724 FEW070TCU PROB40 TEMPO 2803/2809 3000 SHRA SCT040CB BKN050
TAF
TAF LFLB 271400Z 2715/2815 36004KT CAVOK BECMG 2718/2720 18005KT PROB40 TEMPO 2715/2724 FEW070TCU PROB40 TEMPO 2803/2809 3000 SHRA SCT040CB BKN050 =
SR / SS: 04:15 / 19:10 UTC (Lever/Coucher du soleil le 2021-07-28)

 

Webcam de l'Aéroclub - Parking Lima et SW (réactualisation : 5min)

Cliquer ici pour une animation sur les 3 dernières heures / Cliquer sur l'image pour l'agrandir dans une nouvelle fenêtre

 

Webcam de l'Aéroclub - Manche à air et WA (réactualisation : 5min)

Cliquer ici pour une animation sur les 3 dernières heures / Cliquer sur l'image pour l'agrandir dans une nouvelle fenêtre

 

JSN Boot template designed by JoomlaShine.com